Time;durP1;ratioP1;P1;durP2;ratioP2;P2;SDS_P1;SDS_P2;PMS_P1;PMS_P2;Temp;Humidity;BMP_temperature;BMP_pressure;BME280_temperature;BME280_humidity;BME280_pressure;Samples;Min_cycle;Max_cycle;Signal;HPM_P1;HPM_P2
2022/07/16 00:03:32;;;;;;;3.08;2.00;;;;;;;;;;4964573;28;20426;-86
2022/07/16 00:05:57;;;;;;;3.20;1.80;;;;;;;;;;4970499;28;20523;-87
2022/07/16 00:08:23;;;;;;;2.95;1.95;;;;;;;;;;4969227;28;20422;-86
2022/07/16 00:10:49;;;;;;;4.88;2.08;;;;;;;;;;4967536;28;20060;-86
2022/07/16 00:13:14;;;;;;;3.20;1.90;;;;;;;;;;4966955;28;20034;-86
2022/07/16 00:15:40;;;;;;;2.75;1.95;;;;;;;;;;4962006;28;20053;-85
2022/07/16 00:20:49;;;;;;;;;;;;;;;;;;4967275;28;20105;-87
2022/07/16 00:23:14;;;;;;;2.58;1.60;;;;;;;;;;4961842;28;19926;-86
2022/07/16 00:25:40;;;;;;;3.35;1.88;;;;;;;;;;4968377;28;20055;-86
2022/07/16 00:28:05;;;;;;;2.30;1.83;;;;;;;;;;4965395;28;20083;-85
2022/07/16 00:30:31;;;;;;;2.53;1.95;;;;;;;;;;4982261;28;20019;-86
2022/07/16 00:32:56;;;;;;;3.10;2.08;;;;;;;;;;4968143;28;20030;-86
2022/07/16 00:35:21;;;;;;;3.95;2.25;;;;;;;;;;4969018;28;20093;-86
2022/07/16 00:37:47;;;;;;;3.85;2.40;;;;;;;;;;4968268;28;20047;-86
2022/07/16 00:40:12;;;;;;;4.28;2.28;;;;;;;;;;4966285;28;20066;-86
2022/07/16 00:42:38;;;;;;;2.80;1.95;;;;;;;;;;4966289;28;20034;-86
2022/07/16 00:45:04;;;;;;;3.05;2.13;;;;;;;;;;4966620;28;20058;-86
2022/07/16 00:47:30;;;;;;;3.22;2.03;;;;;;;;;;4966941;28;20039;-86
2022/07/16 00:49:56;;;;;;;2.97;1.95;;;;;;;;;;4966859;28;20038;-86
2022/07/16 00:52:22;;;;;;;2.85;2.20;;;;;;;;;;4961360;28;20035;-86
2022/07/16 00:54:47;;;;;;;3.85;2.47;;;;;;;;;;4966097;28;20046;-86
2022/07/16 00:57:13;;;;;;;4.38;2.28;;;;;;;;;;4967445;28;20489;-86
2022/07/16 00:59:39;;;;;;;4.40;2.67;;;;;;;;;;4968137;28;20495;-86
2022/07/16 01:02:04;;;;;;;3.03;2.13;;;;;;;;;;4968815;28;20034;-86
2022/07/16 01:04:29;;;;;;;3.78;2.10;;;;;;;;;;4967766;28;20083;-86
2022/07/16 01:06:55;;;;;;;3.00;2.13;;;;;;;;;;4968209;28;20476;-86
2022/07/16 01:09:21;;;;;;;2.78;1.92;;;;;;;;;;4968825;28;20118;-86
2022/07/16 01:11:47;;;;;;;3.28;2.33;;;;;;;;;;4968071;28;20047;-87
2022/07/16 01:14:14;;;;;;;5.53;1.80;;;;;;;;;;4982473;28;20038;-87
2022/07/16 01:16:40;;;;;;;5.50;2.08;;;;;;;;;;4991520;28;20027;-85
2022/07/16 01:19:08;;;;;;;2.67;2.03;;;;;;;;;;4978105;28;20423;-86
2022/07/16 01:21:33;;;;;;;2.65;1.92;;;;;;;;;;4970437;28;20122;-86
2022/07/16 01:23:58;;;;;;;3.92;2.03;;;;;;;;;;4972243;28;20105;-87
2022/07/16 01:26:24;;;;;;;3.63;2.10;;;;;;;;;;4969287;28;20035;-86
2022/07/16 01:28:49;;;;;;;2.33;1.92;;;;;;;;;;4965667;28;20031;-87
2022/07/16 01:31:15;;;;;;;2.50;2.10;;;;;;;;;;4967697;28;20050;-87
2022/07/16 01:33:41;;;;;;;4.95;2.20;;;;;;;;;;4973951;28;20153;-86
2022/07/16 01:36:09;;;;;;;2.63;1.90;;;;;;;;;;4989354;28;20121;-86
2022/07/16 01:38:38;;;;;;;4.28;2.10;;;;;;;;;;4988646;28;20038;-86
2022/07/16 01:41:03;;;;;;;2.45;1.80;;;;;;;;;;4989757;28;20046;-86
2022/07/16 01:43:29;;;;;;;6.95;2.47;;;;;;;;;;4971671;28;20619;-86
2022/07/16 01:45:56;;;;;;;6.05;1.83;;;;;;;;;;4965599;28;20082;-87
2022/07/16 01:48:22;;;;;;;3.75;2.15;;;;;;;;;;4961932;28;20023;-87
2022/07/16 01:50:48;;;;;;;3.53;2.20;;;;;;;;;;4957280;28;20035;-86
2022/07/16 01:53:14;;;;;;;3.80;2.08;;;;;;;;;;4963575;28;20518;-85
2022/07/16 01:55:40;;;;;;;5.95;2.20;;;;;;;;;;4967053;28;20238;-87
2022/07/16 01:58:07;;;;;;;5.47;2.60;;;;;;;;;;4964278;28;20039;-86
2022/07/16 02:00:33;;;;;;;5.35;2.55;;;;;;;;;;4969300;28;20114;-87
2022/07/16 02:02:59;;;;;;;6.32;2.50;;;;;;;;;;4967387;28;20034;-87
2022/07/16 02:05:24;;;;;;;3.30;2.30;;;;;;;;;;4965728;28;20035;-87
2022/07/16 02:07:50;;;;;;;4.65;2.65;;;;;;;;;;4964819;28;20062;-86
2022/07/16 02:10:16;;;;;;;4.20;2.50;;;;;;;;;;4968637;28;20039;-86
2022/07/16 02:12:41;;;;;;;5.25;2.47;;;;;;;;;;4980069;28;20482;-86
2022/07/16 02:15:07;;;;;;;2.85;1.83;;;;;;;;;;4963292;28;20486;-87
2022/07/16 02:17:33;;;;;;;3.25;2.00;;;;;;;;;;4967021;28;20422;-87
2022/07/16 02:19:59;;;;;;;3.50;2.08;;;;;;;;;;4965680;28;20035;-88
2022/07/16 02:22:24;;;;;;;2.67;2.10;;;;;;;;;;4981764;28;20083;-87
2022/07/16 02:24:50;;;;;;;2.90;2.30;;;;;;;;;;4965388;28;20055;-87
2022/07/16 02:27:15;;;;;;;3.45;2.05;;;;;;;;;;4969374;28;20030;-87
2022/07/16 02:29:40;;;;;;;3.25;2.22;;;;;;;;;;4967512;28;20042;-87
2022/07/16 02:32:06;;;;;;;4.63;2.28;;;;;;;;;;4965929;28;20039;-87
2022/07/16 02:34:31;;;;;;;4.07;2.28;;;;;;;;;;4965469;28;20043;-87
2022/07/16 02:36:56;;;;;;;3.80;2.60;;;;;;;;;;4965330;28;20091;-87
2022/07/16 02:39:22;;;;;;;3.08;2.30;;;;;;;;;;4984174;28;20564;-87
2022/07/16 02:41:47;;;;;;;3.55;2.30;;;;;;;;;;4966030;28;20035;-87
2022/07/16 02:44:13;;;;;;;3.47;2.28;;;;;;;;;;4966236;28;20034;-87
2022/07/16 02:46:38;;;;;;;3.63;2.45;;;;;;;;;;4966856;28;20039;-86
2022/07/16 02:49:03;;;;;;;7.10;2.67;;;;;;;;;;4968364;28;20027;-87
2022/07/16 02:51:29;;;;;;;3.63;2.28;;;;;;;;;;4968719;28;20146;-87
2022/07/16 02:53:54;;;;;;;3.28;2.38;;;;;;;;;;4971350;28;20029;-87
2022/07/16 02:56:19;;;;;;;5.22;2.08;;;;;;;;;;4970777;28;20031;-86
2022/07/16 02:58:44;;;;;;;4.22;1.95;;;;;;;;;;4969465;28;20071;-86
2022/07/16 03:01:10;;;;;;;3.45;2.40;;;;;;;;;;4969721;28;20518;-87
2022/07/16 03:03:35;;;;;;;2.97;1.90;;;;;;;;;;4963752;28;20565;-86
2022/07/16 03:06:01;;;;;;;5.00;2.60;;;;;;;;;;4971863;28;20042;-87
2022/07/16 03:08:26;;;;;;;3.65;2.60;;;;;;;;;;4972029;28;20035;-87
2022/07/16 03:10:52;;;;;;;4.20;2.17;;;;;;;;;;4968114;28;20035;-87
2022/07/16 03:13:17;;;;;;;4.40;2.58;;;;;;;;;;4970656;28;20042;-87
2022/07/16 03:15:42;;;;;;;4.70;2.40;;;;;;;;;;4969336;28;20027;-86
2022/07/16 03:18:08;;;;;;;3.03;2.40;;;;;;;;;;4972161;28;20085;-86
2022/07/16 03:20:33;;;;;;;5.43;2.83;;;;;;;;;;4970898;28;20082;-87
2022/07/16 03:22:59;;;;;;;3.85;2.03;;;;;;;;;;4972231;28;20192;-87
2022/07/16 03:25:24;;;;;;;3.03;1.90;;;;;;;;;;4987857;28;20466;-86
2022/07/16 03:27:49;;;;;;;4.10;2.00;;;;;;;;;;4969039;28;20055;-87
2022/07/16 03:30:15;;;;;;;3.13;2.60;;;;;;;;;;4977906;28;20022;-87
2022/07/16 03:32:41;;;;;;;4.05;2.33;;;;;;;;;;4970607;28;20394;-87
2022/07/16 03:35:07;;;;;;;3.83;2.50;;;;;;;;;;4971571;28;20066;-87
2022/07/16 03:37:33;;;;;;;4.63;2.88;;;;;;;;;;4971639;28;20042;-87
2022/07/16 03:39:59;;;;;;;4.72;2.47;;;;;;;;;;4984694;28;20093;-88
2022/07/16 03:42:24;;;;;;;4.15;2.67;;;;;;;;;;4970738;28;20026;-87
2022/07/16 03:44:49;;;;;;;3.72;2.42;;;;;;;;;;4970272;28;20042;-86
2022/07/16 03:47:15;;;;;;;4.13;2.72;;;;;;;;;;4971524;28;20534;-87
2022/07/16 03:49:40;;;;;;;3.55;2.42;;;;;;;;;;4973353;28;20043;-87
2022/07/16 03:52:06;;;;;;;6.05;2.65;;;;;;;;;;4968761;28;20038;-86
2022/07/16 03:54:31;;;;;;;3.95;2.50;;;;;;;;;;4970320;28;20304;-86
2022/07/16 03:56:56;;;;;;;4.75;2.47;;;;;;;;;;4972042;28;20026;-88
2022/07/16 03:59:22;;;;;;;4.10;3.20;;;;;;;;;;4968287;28;20035;-86
2022/07/16 04:01:47;;;;;;;5.30;3.08;;;;;;;;;;4969325;28;20027;-87
2022/07/16 04:04:12;;;;;;;4.43;2.72;;;;;;;;;;4970623;28;20418;-86
2022/07/16 04:06:38;;;;;;;3.92;2.63;;;;;;;;;;4963545;28;20033;-87
2022/07/16 04:09:03;;;;;;;3.88;2.50;;;;;;;;;;4970347;28;20035;-87
2022/07/16 04:11:29;;;;;;;5.13;2.72;;;;;;;;;;4970937;28;20031;-87
2022/07/16 04:13:54;;;;;;;3.58;2.58;;;;;;;;;;4969676;28;20450;-87
2022/07/16 04:16:19;;;;;;;6.40;2.90;;;;;;;;;;4971375;28;20498;-87
2022/07/16 04:18:45;;;;;;;6.22;2.63;;;;;;;;;;4968597;28;20541;-86
2022/07/16 04:21:11;;;;;;;4.32;2.83;;;;;;;;;;4967711;28;20434;-86
2022/07/16 04:23:36;;;;;;;4.03;2.60;;;;;;;;;;4961388;28;20035;-87
2022/07/16 04:26:02;;;;;;;5.28;2.80;;;;;;;;;;4968494;28;20498;-87
2022/07/16 04:28:27;;;;;;;4.00;2.55;;;;;;;;;;4965834;28;20425;-88
2022/07/16 04:30:53;;;;;;;6.35;3.33;;;;;;;;;;4964967;28;20057;-87
2022/07/16 04:33:18;;;;;;;5.18;3.10;;;;;;;;;;4972177;28;20030;-87
2022/07/16 04:35:44;;;;;;;3.70;2.70;;;;;;;;;;4968500;28;20057;-87
2022/07/16 04:38:09;;;;;;;3.35;2.08;;;;;;;;;;4985625;28;20047;-86
2022/07/16 04:40:35;;;;;;;6.28;2.35;;;;;;;;;;4969047;28;20054;-86
2022/07/16 04:43:00;;;;;;;5.20;2.85;;;;;;;;;;4967751;28;20030;-85
2022/07/16 04:45:25;;;;;;;6.80;3.22;;;;;;;;;;4967487;28;20049;-86
2022/07/16 04:47:51;;;;;;;4.18;2.85;;;;;;;;;;4967743;28;20536;-86
2022/07/16 04:50:16;;;;;;;6.43;2.78;;;;;;;;;;4964612;28;20037;-85
2022/07/16 04:52:41;;;;;;;5.50;3.30;;;;;;;;;;4965986;28;20031;-86
2022/07/16 04:55:08;;;;;;;5.60;3.67;;;;;;;;;;4969272;28;20066;-85
2022/07/16 04:57:33;;;;;;;6.10;3.63;;;;;;;;;;4968385;28;20516;-85
2022/07/16 04:59:58;;;;;;;6.18;3.58;;;;;;;;;;4968963;28;20046;-85
2022/07/16 05:05:08;;;;;;;7.18;3.58;;;;;;;;;;4960793;28;20182;-86
2022/07/16 05:07:34;;;;;;;7.32;4.00;;;;;;;;;;4983480;28;20136;-85
2022/07/16 05:09:59;;;;;;;11.15;3.80;;;;;;;;;;4968157;28;20039;-85
2022/07/16 05:12:24;;;;;;;8.75;3.78;;;;;;;;;;4966277;28;20062;-85
2022/07/16 05:14:50;;;;;;;8.30;4.13;;;;;;;;;;4968993;28;20031;-86
2022/07/16 05:17:15;;;;;;;8.07;3.40;;;;;;;;;;4960553;28;20046;-85
2022/07/16 05:19:40;;;;;;;6.28;3.75;;;;;;;;;;4962749;28;20039;-85
2022/07/16 05:22:06;;;;;;;6.43;4.32;;;;;;;;;;4964497;28;20050;-85
2022/07/16 05:24:32;;;;;;;8.13;4.35;;;;;;;;;;4968638;28;20556;-86
2022/07/16 05:26:58;;;;;;;7.40;4.53;;;;;;;;;;4968398;28;20030;-86
2022/07/16 05:29:23;;;;;;;7.18;4.68;;;;;;;;;;4973983;28;20031;-86
2022/07/16 05:31:49;;;;;;;9.02;4.15;;;;;;;;;;4969307;28;20279;-85
2022/07/16 05:34:14;;;;;;;8.82;4.30;;;;;;;;;;4964307;28;20082;-85
2022/07/16 05:36:39;;;;;;;9.82;5.45;;;;;;;;;;4966878;28;20164;-86
2022/07/16 05:39:05;;;;;;;13.82;6.50;;;;;;;;;;4983296;28;20026;-85
2022/07/16 05:41:30;;;;;;;16.17;6.78;;;;;;;;;;4963596;28;20041;-85
2022/07/16 05:43:57;;;;;;;11.15;6.55;;;;;;;;;;4975297;28;20034;-86
2022/07/16 05:46:23;;;;;;;11.85;6.97;;;;;;;;;;4951456;28;20117;-85
2022/07/16 05:48:48;;;;;;;13.35;6.30;;;;;;;;;;4963731;28;20039;-85
2022/07/16 05:51:13;;;;;;;15.10;6.57;;;;;;;;;;4967274;28;20031;-86
2022/07/16 05:53:39;;;;;;;10.95;6.88;;;;;;;;;;4962600;28;20130;-85
2022/07/16 05:56:04;;;;;;;15.73;6.82;;;;;;;;;;4961061;28;20043;-85
2022/07/16 05:58:30;;;;;;;12.25;6.28;;;;;;;;;;4964961;28;20035;-84
2022/07/16 06:00:55;;;;;;;12.68;6.30;;;;;;;;;;4965849;28;20031;-85
2022/07/16 06:03:20;;;;;;;12.23;6.55;;;;;;;;;;4975656;28;20023;-86
2022/07/16 06:05:46;;;;;;;12.70;6.95;;;;;;;;;;4966564;28;20031;-85
2022/07/16 06:08:11;;;;;;;13.88;6.70;;;;;;;;;;4961933;28;20477;-85
2022/07/16 06:10:37;;;;;;;12.05;6.97;;;;;;;;;;4978524;28;20034;-85
2022/07/16 06:13:02;;;;;;;11.07;5.93;;;;;;;;;;4981009;28;20042;-85
2022/07/16 06:15:28;;;;;;;10.40;5.93;;;;;;;;;;4966098;28;20027;-86
2022/07/16 06:17:53;;;;;;;12.77;6.05;;;;;;;;;;4958131;28;20046;-85
2022/07/16 06:20:18;;;;;;;10.48;6.28;;;;;;;;;;4965314;28;20149;-86
2022/07/16 06:22:44;;;;;;;17.95;6.00;;;;;;;;;;4966085;28;20055;-85
2022/07/16 06:25:09;;;;;;;8.95;5.45;;;;;;;;;;4966623;28;20038;-85
2022/07/16 06:27:40;;;;;;;14.13;5.50;;;;;;;;;;4966124;28;20034;-85
2022/07/16 06:30:06;;;;;;;10.35;5.85;;;;;;;;;;4967659;28;20557;-84
2022/07/16 06:32:31;;;;;;;12.07;6.15;;;;;;;;;;4966982;28;20031;-85
2022/07/16 06:34:57;;;;;;;11.85;5.30;;;;;;;;;;4963305;28;20098;-85
2022/07/16 06:37:22;;;;;;;8.45;5.45;;;;;;;;;;4965730;28;20541;-85
2022/07/16 06:39:48;;;;;;;10.98;5.82;;;;;;;;;;4985217;28;20046;-86
2022/07/16 06:42:13;;;;;;;11.38;5.95;;;;;;;;;;4969904;28;20058;-86
2022/07/16 06:44:40;;;;;;;8.38;5.13;;;;;;;;;;4968652;28;20035;-87
2022/07/16 06:47:05;;;;;;;10.00;5.07;;;;;;;;;;4968240;28;20046;-86
2022/07/16 06:49:30;;;;;;;14.80;5.50;;;;;;;;;;4971145;28;20034;-88
2022/07/16 06:51:56;;;;;;;8.68;5.25;;;;;;;;;;4970895;28;20042;-87
2022/07/16 06:54:21;;;;;;;10.65;4.95;;;;;;;;;;4984931;28;20126;-87
2022/07/16 06:56:46;;;;;;;7.70;4.60;;;;;;;;;;4977614;28;20054;-87
2022/07/16 06:59:12;;;;;;;8.15;4.78;;;;;;;;;;4978526;28;20152;-88
2022/07/16 07:01:37;;;;;;;9.95;4.90;;;;;;;;;;4976604;28;20630;-89
2022/07/16 07:04:03;;;;;;;9.93;4.15;;;;;;;;;;4963595;28;20419;-88
2022/07/16 07:06:28;;;;;;;9.48;4.70;;;;;;;;;;4973568;28;20027;-91
2022/07/16 07:08:53;;;;;;;11.82;4.50;;;;;;;;;;4965929;28;20039;-90
2022/07/16 07:11:19;;;;;;;9.23;4.50;;;;;;;;;;4969424;28;20034;-91
2022/07/16 07:13:44;;;;;;;9.23;4.68;;;;;;;;;;4971920;28;20098;-91
2022/07/16 07:16:10;;;;;;;10.00;4.55;;;;;;;;;;4974923;28;20053;-91
2022/07/16 07:18:36;;;;;;;6.20;3.72;;;;;;;;;;4965790;28;20030;-90
2022/07/16 07:21:02;;;;;;;6.35;3.47;;;;;;;;;;4973410;28;20039;-90
2022/07/16 07:23:27;;;;;;;6.32;4.05;;;;;;;;;;4967205;28;20126;-88
2022/07/16 07:25:52;;;;;;;8.25;3.92;;;;;;;;;;4965500;28;20403;-91
2022/07/16 07:28:18;;;;;;;11.80;4.15;;;;;;;;;;4965606;28;20045;-89
2022/07/16 07:30:44;;;;;;;8.15;4.07;;;;;;;;;;4976541;28;20045;-90
2022/07/16 07:33:10;;;;;;;7.55;3.60;;;;;;;;;;4973762;28;20027;-91
2022/07/16 07:35:35;;;;;;;6.78;4.10;;;;;;;;;;4970568;28;20513;-90
2022/07/16 07:38:01;;;;;;;5.45;3.80;;;;;;;;;;4971962;28;20215;-88
2022/07/16 07:40:27;;;;;;;8.23;3.72;;;;;;;;;;4971983;28;20537;-87
2022/07/16 07:42:52;;;;;;;9.18;3.80;;;;;;;;;;4973938;28;20047;-92
2022/07/16 07:45:17;;;;;;;6.07;3.67;;;;;;;;;;4974564;28;20031;-89
2022/07/16 07:47:43;;;;;;;8.13;3.45;;;;;;;;;;4972095;28;20125;-88
2022/07/16 07:50:09;;;;;;;5.78;3.10;;;;;;;;;;4972305;28;20038;-91
2022/07/16 07:52:34;;;;;;;6.65;3.00;;;;;;;;;;4971597;28;20039;-88
2022/07/16 07:55:00;;;;;;;6.95;3.22;;;;;;;;;;4970874;28;20039;-91
2022/07/16 07:57:25;;;;;;;5.45;3.17;;;;;;;;;;4974946;28;20023;-88
2022/07/16 07:59:51;;;;;;;7.25;3.70;;;;;;;;;;4965690;28;20146;-88
2022/07/16 08:02:16;;;;;;;7.15;3.60;;;;;;;;;;4970043;28;20054;-91
2022/07/16 08:04:42;;;;;;;8.18;3.72;;;;;;;;;;4970171;28;20035;-90
2022/07/16 08:07:07;;;;;;;4.93;3.08;;;;;;;;;;4967702;28;20541;-91
2022/07/16 08:09:33;;;;;;;6.35;3.08;;;;;;;;;;4964880;28;20038;-89
2022/07/16 08:11:59;;;;;;;7.68;2.95;;;;;;;;;;4969635;28;20082;-88
2022/07/16 08:14:24;;;;;;;5.72;3.10;;;;;;;;;;4970226;28;20802;-88
2022/07/16 08:16:50;;;;;;;9.00;3.17;;;;;;;;;;4968949;28;20830;-88
2022/07/16 08:19:15;;;;;;;5.15;3.00;;;;;;;;;;4964040;28;20093;-87
2022/07/16 08:21:40;;;;;;;8.80;3.53;;;;;;;;;;4968053;28;20050;-88
2022/07/16 08:26:49;;;;;;;6.13;3.50;;;;;;;;;;4964215;28;20057;-87
2022/07/16 08:29:15;;;;;;;6.00;3.20;;;;;;;;;;4968646;28;20062;-88
2022/07/16 08:31:41;;;;;;;5.85;3.30;;;;;;;;;;4963569;28;20511;-90
2022/07/16 08:34:06;;;;;;;8.38;3.67;;;;;;;;;;4960316;28;20041;-89
2022/07/16 08:36:33;;;;;;;8.35;3.45;;;;;;;;;;4965128;28;20030;-89
2022/07/16 08:38:58;;;;;;;6.97;3.78;;;;;;;;;;4967107;28;20058;-87
2022/07/16 08:41:25;;;;;;;7.93;4.00;;;;;;;;;;4964287;28;20067;-87
2022/07/16 08:43:51;;;;;;;6.43;3.42;;;;;;;;;;4968102;28;20097;-90
2022/07/16 08:46:20;;;;;;;5.75;3.70;;;;;;;;;;4983830;28;20035;-86
2022/07/16 08:48:46;;;;;;;4.45;2.95;;;;;;;;;;4968532;28;20031;-88
2022/07/16 08:51:12;;;;;;;5.25;3.10;;;;;;;;;;4969962;28;20682;-88
2022/07/16 08:53:39;;;;;;;3.60;2.90;;;;;;;;;;4968084;28;20042;-88
2022/07/16 08:56:05;;;;;;;5.85;2.95;;;;;;;;;;4970230;28;20491;-90
2022/07/16 08:58:31;;;;;;;5.57;3.10;;;;;;;;;;4969415;28;20111;-90
2022/07/16 09:00:58;;;;;;;3.20;2.42;;;;;;;;;;4968444;28;20057;-88
2022/07/16 09:03:24;;;;;;;6.03;2.50;;;;;;;;;;4969676;28;20389;-91
2022/07/16 09:05:50;;;;;;;3.70;2.40;;;;;;;;;;4968480;28;20038;-92
2022/07/16 09:08:19;;;;;;;2.67;2.13;;;;;;;;;;4969371;28;20031;-89
2022/07/16 09:10:45;;;;;;;7.18;2.90;;;;;;;;;;4966167;28;20031;-89
2022/07/16 09:13:11;;;;;;;2.97;2.10;;;;;;;;;;4964923;28;20043;-86
2022/07/16 09:15:39;;;;;;;2.50;1.95;;;;;;;;;;4964352;28;20102;-88
2022/07/16 09:18:19;;;;;;;3.13;2.25;;;;;;;;;;4963811;28;20038;-87
2022/07/16 09:20:49;;;;;;;3.00;1.88;;;;;;;;;;4965562;28;20577;-91
2022/07/16 09:23:20;;;;;;;4.68;1.80;;;;;;;;;;4968882;28;20047;-89
2022/07/16 09:25:51;;;;;;;3.40;1.90;;;;;;;;;;4970589;28;20102;-88
2022/07/16 09:28:18;;;;;;;2.28;1.85;;;;;;;;;;4977634;28;20061;-88
2022/07/16 09:30:44;;;;;;;2.97;1.73;;;;;;;;;;4993838;28;20074;-86
2022/07/16 09:33:22;;;;;;;2.72;1.48;;;;;;;;;;4990847;28;20042;-89
2022/07/16 09:36:02;;;;;;;3.53;1.75;;;;;;;;;;4972053;28;20074;-89
2022/07/16 09:38:27;;;;;;;3.42;1.40;;;;;;;;;;4973901;28;20045;-88
2022/07/16 09:40:54;;;;;;;2.78;1.35;;;;;;;;;;4977028;28;20063;-87
2022/07/16 09:43:21;;;;;;;1.88;1.20;;;;;;;;;;4970968;28;20031;-87
2022/07/16 09:45:57;;;;;;;1.52;1.42;;;;;;;;;;4970004;28;20027;-88
2022/07/16 09:48:25;;;;;;;1.13;1.02;;;;;;;;;;4970612;28;20011;-89
2022/07/16 09:50:53;;;;;;;1.50;1.30;;;;;;;;;;4970717;28;20085;-88
2022/07/16 09:53:21;;;;;;;4.30;1.30;;;;;;;;;;4970199;28;20038;-88
2022/07/16 09:56:09;;;;;;;2.53;1.20;;;;;;;;;;4969215;28;20047;-87
2022/07/16 09:58:36;;;;;;;2.15;1.27;;;;;;;;;;4968181;28;20521;-89
2022/07/16 10:01:03;;;;;;;2.55;1.30;;;;;;;;;;4967825;28;20038;-88
2022/07/16 10:03:29;;;;;;;2.70;1.17;;;;;;;;;;4962536;28;20482;-90
2022/07/16 10:05:56;;;;;;;1.20;1.10;;;;;;;;;;4982815;28;20049;-88
2022/07/16 10:08:22;;;;;;;2.60;1.48;;;;;;;;;;4971756;28;20043;-90
2022/07/16 10:10:48;;;;;;;1.35;1.25;;;;;;;;;;4982277;28;20067;-88
2022/07/16 10:13:15;;;;;;;3.05;1.30;;;;;;;;;;4970301;28;20054;-88
2022/07/16 10:15:41;;;;;;;1.50;1.20;;;;;;;;;;4974509;28;20121;-88
2022/07/16 10:18:39;;;;;;;1.80;1.20;;;;;;;;;;4972492;28;20023;-89
2022/07/16 10:21:07;;;;;;;1.55;1.15;;;;;;;;;;4967256;28;20078;-87
2022/07/16 10:23:34;;;;;;;4.47;1.30;;;;;;;;;;4970959;28;20027;-89
2022/07/16 10:26:22;;;;;;;1.45;1.10;;;;;;;;;;4973349;28;20026;-88
2022/07/16 10:28:54;;;;;;;2.20;1.30;;;;;;;;;;4973403;28;20082;-90
2022/07/16 10:31:39;;;;;;;3.70;1.35;;;;;;;;;;4972015;28;20058;-89
2022/07/16 10:34:13;;;;;;;1.50;1.10;;;;;;;;;;4984578;28;20041;-89
2022/07/16 10:36:52;;;;;;;2.08;1.30;;;;;;;;;;4998123;28;20042;-90
2022/07/16 10:39:18;;;;;;;1.50;1.10;;;;;;;;;;4976809;28;20652;-87
2022/07/16 10:42:02;;;;;;;3.35;1.50;;;;;;;;;;4969584;28;20028;-87
2022/07/16 10:44:44;;;;;;;3.80;1.60;;;;;;;;;;4965473;28;20026;-89
2022/07/16 10:47:09;;;;;;;1.60;1.10;;;;;;;;;;4969885;28;20066;-88
2022/07/16 10:49:35;;;;;;;2.60;1.42;;;;;;;;;;4968434;28;20134;-89
2022/07/16 10:52:00;;;;;;;1.65;1.30;;;;;;;;;;4978941;28;20122;-88
2022/07/16 10:54:30;;;;;;;1.85;1.23;;;;;;;;;;4969017;28;20031;-90
2022/07/16 10:56:58;;;;;;;5.50;1.25;;;;;;;;;;4968255;28;20034;-91
2022/07/16 10:59:32;;;;;;;1.40;1.10;;;;;;;;;;4971559;28;20777;-88
2022/07/16 11:02:03;;;;;;;1.35;1.00;;;;;;;;;;4968709;28;20039;-86
2022/07/16 11:04:31;;;;;;;1.88;1.23;;;;;;;;;;4971269;28;20043;-87
2022/07/16 11:06:58;;;;;;;1.55;1.20;;;;;;;;;;4968410;28;20038;-89
2022/07/16 11:09:31;;;;;;;1.38;1.20;;;;;;;;;;4972682;28;20023;-88
2022/07/16 11:12:18;;;;;;;2.38;1.30;;;;;;;;;;4964291;28;20120;-88
2022/07/16 11:14:48;;;;;;;2.85;1.40;;;;;;;;;;4971856;28;20030;-91
2022/07/16 11:17:15;;;;;;;1.30;1.10;;;;;;;;;;4977249;28;20047;-90
2022/07/16 11:19:48;;;;;;;2.95;1.40;;;;;;;;;;4976762;28;20069;-93
2022/07/16 11:22:17;;;;;;;2.58;1.30;;;;;;;;;;4970900;28;20042;-91
2022/07/16 11:24:48;;;;;;;2.22;1.58;;;;;;;;;;4973421;28;20086;-90
2022/07/16 11:27:14;;;;;;;2.00;1.50;;;;;;;;;;4991421;28;20042;-90
2022/07/16 11:29:39;;;;;;;3.08;1.45;;;;;;;;;;4974835;28;20538;-89
2022/07/16 11:32:05;;;;;;;3.05;1.40;;;;;;;;;;4973955;28;20081;-90
2022/07/16 11:34:34;;;;;;;2.38;1.50;;;;;;;;;;4974662;28;20818;-91
2022/07/16 11:37:00;;;;;;;3.47;1.60;;;;;;;;;;4972803;28;20054;-90
2022/07/16 11:39:27;;;;;;;2.08;1.50;;;;;;;;;;4973275;28;20122;-91
2022/07/16 11:41:58;;;;;;;5.65;1.23;;;;;;;;;;4968220;28;20034;-88
2022/07/16 11:44:36;;;;;;;1.30;1.20;;;;;;;;;;4973047;28;20169;-90
2022/07/16 11:47:07;;;;;;;1.95;1.52;;;;;;;;;;4988267;28;20039;-90
2022/07/16 11:49:34;;;;;;;4.75;1.55;;;;;;;;;;4970372;28;20035;-90
2022/07/16 11:52:05;;;;;;;3.28;1.50;;;;;;;;;;4972095;28;20510;-91
2022/07/16 11:54:39;;;;;;;1.65;1.55;;;;;;;;;;4970844;28;20266;-90
2022/07/16 11:57:10;;;;;;;1.50;1.40;;;;;;;;;;4971340;28;20034;-87
2022/07/16 11:59:41;;;;;;;3.38;1.55;;;;;;;;;;4984439;28;20039;-86
2022/07/16 12:02:14;;;;;;;4.00;1.92;;;;;;;;;;4978365;28;20062;-89
2022/07/16 12:04:46;;;;;;;2.22;1.80;;;;;;;;;;4975824;28;20117;-87
2022/07/16 12:07:14;;;;;;;2.20;2.00;;;;;;;;;;4990154;28;20039;-91
2022/07/16 12:09:42;;;;;;;2.10;1.90;;;;;;;;;;4970730;28;20487;-91
2022/07/16 12:12:19;;;;;;;3.50;2.45;;;;;;;;;;4984072;28;20031;-90
2022/07/16 12:14:47;;;;;;;3.33;2.40;;;;;;;;;;4987122;28;20113;-90
2022/07/16 12:17:25;;;;;;;2.33;1.90;;;;;;;;;;4982105;28;20043;-91
2022/07/16 12:20:25;;;;;;;2.90;1.90;;;;;;;;;;4986960;28;20937;-87
2022/07/16 12:22:56;;;;;;;1.98;1.77;;;;;;;;;;4981387;28;20039;-90
2022/07/16 12:25:35;;;;;;;1.80;1.70;;;;;;;;;;4970858;28;20035;-88
2022/07/16 12:28:11;;;;;;;2.80;1.80;;;;;;;;;;4971268;28;20343;-90
2022/07/16 12:31:04;;;;;;;3.55;1.88;;;;;;;;;;4985343;28;20022;-85
2022/07/16 12:33:30;;;;;;;1.90;1.70;;;;;;;;;;4965352;28;20031;-90
2022/07/16 12:35:55;;;;;;;2.53;1.58;;;;;;;;;;4967494;28;20542;-89
2022/07/16 12:38:45;;;;;;;2.90;1.60;;;;;;;;;;4964356;28;20105;-89
2022/07/16 12:41:16;;;;;;;1.88;1.50;;;;;;;;;;4967968;28;20062;-85
2022/07/16 12:43:44;;;;;;;2.78;1.40;;;;;;;;;;4970879;28;20026;-89
2022/07/16 12:46:10;;;;;;;3.75;1.70;;;;;;;;;;4969519;28;20413;-87
2022/07/16 12:48:47;;;;;;;2.22;1.30;;;;;;;;;;4971255;28;20712;-89
2022/07/16 12:51:16;;;;;;;3.75;1.52;;;;;;;;;;4973437;28;20101;-89
2022/07/16 12:53:41;;;;;;;1.58;1.48;;;;;;;;;;4972279;28;20122;-88
2022/07/16 12:58:51;;;;;;;2.13;1.50;;;;;;;;;;4973703;28;20083;-91
2022/07/16 13:01:18;;;;;;;3.22;1.50;;;;;;;;;;4970818;28;20039;-89
2022/07/16 13:03:45;;;;;;;2.08;1.50;;;;;;;;;;4970587;28;20025;-89
2022/07/16 13:06:11;;;;;;;1.40;1.20;;;;;;;;;;4971575;28;20045;-90
2022/07/16 13:08:36;;;;;;;1.52;1.20;;;;;;;;;;4964618;28;20103;-88
2022/07/16 13:11:03;;;;;;;2.22;1.40;;;;;;;;;;4971942;28;20059;-91
2022/07/16 13:13:29;;;;;;;2.22;1.67;;;;;;;;;;4973607;28;20035;-91
2022/07/16 13:15:55;;;;;;;2.03;1.30;;;;;;;;;;4956643;28;20043;-92
2022/07/16 13:18:20;;;;;;;1.92;1.35;;;;;;;;;;4968667;28;20363;-89
2022/07/16 13:20:47;;;;;;;3.95;1.40;;;;;;;;;;4973686;28;20058;-92
2022/07/16 13:23:13;;;;;;;2.28;1.50;;;;;;;;;;4972767;28;20046;-89
2022/07/16 13:25:38;;;;;;;3.95;1.58;;;;;;;;;;4969910;28;20046;-89
2022/07/16 13:28:04;;;;;;;2.03;1.48;;;;;;;;;;4972593;28;20058;-89
2022/07/16 13:30:29;;;;;;;1.48;1.13;;;;;;;;;;4973563;28;20029;-92
2022/07/16 13:32:54;;;;;;;5.40;1.40;;;;;;;;;;4972786;28;20047;-88
2022/07/16 13:35:19;;;;;;;1.60;1.10;;;;;;;;;;4992877;28;20039;-90
2022/07/16 13:37:45;;;;;;;1.80;1.30;;;;;;;;;;4991931;28;20034;-93
2022/07/16 13:40:11;;;;;;;2.00;1.15;;;;;;;;;;4975499;28;20055;-89
2022/07/16 13:42:36;;;;;;;1.40;1.25;;;;;;;;;;4973567;28;20061;-89
2022/07/16 13:45:01;;;;;;;1.77;1.10;;;;;;;;;;4973081;28;20019;-88
2022/07/16 13:47:27;;;;;;;1.60;1.02;;;;;;;;;;4970992;28;20099;-91
2022/07/16 13:49:53;;;;;;;4.53;1.65;;;;;;;;;;4970212;28;20034;-93
2022/07/16 13:52:18;;;;;;;3.75;1.17;;;;;;;;;;4979290;28;20042;-94
2022/07/16 13:54:44;;;;;;;1.10;1.00;;;;;;;;;;4971404;28;20092;-89
2022/07/16 13:59:53;;;;;;;2.13;1.40;;;;;;;;;;4967548;28;20050;-91
2022/07/16 14:02:19;;;;;;;1.55;1.17;;;;;;;;;;4961793;28;20531;-91
2022/07/16 14:04:44;;;;;;;1.33;1.23;;;;;;;;;;4978178;28;20051;-89
2022/07/16 14:07:10;;;;;;;3.78;1.40;;;;;;;;;;4969663;28;20050;-93
2022/07/16 14:09:37;;;;;;;2.42;1.27;;;;;;;;;;4967723;28;20491;-90
2022/07/16 14:12:03;;;;;;;2.92;1.48;;;;;;;;;;4968940;28;20095;-88
2022/07/16 14:14:28;;;;;;;1.52;1.27;;;;;;;;;;4966761;28;20164;-89
2022/07/16 14:16:53;;;;;;;1.75;1.10;;;;;;;;;;4967593;28;20167;-88
2022/07/16 14:19:19;;;;;;;1.65;1.35;;;;;;;;;;4967301;28;20038;-88
2022/07/16 14:21:44;;;;;;;2.08;1.27;;;;;;;;;;4968187;28;20473;-88
2022/07/16 14:24:10;;;;;;;1.40;1.30;;;;;;;;;;4966976;28;20492;-89
2022/07/16 14:26:36;;;;;;;1.48;1.38;;;;;;;;;;4969144;28;20039;-89
2022/07/16 14:29:02;;;;;;;2.00;1.30;;;;;;;;;;4967401;28;20105;-88
2022/07/16 14:31:28;;;;;;;1.17;1.08;;;;;;;;;;4982442;28;20035;-87
2022/07/16 14:33:53;;;;;;;2.30;1.40;;;;;;;;;;4966811;28;20065;-90
2022/07/16 14:36:19;;;;;;;1.75;1.30;;;;;;;;;;4967242;28;20046;-89
2022/07/16 14:38:44;;;;;;;1.65;1.40;;;;;;;;;;4985099;28;20026;-93
2022/07/16 14:41:10;;;;;;;1.65;1.50;;;;;;;;;;4968005;28;20043;-91
2022/07/16 14:43:35;;;;;;;2.05;1.10;;;;;;;;;;4967452;28;20027;-90
2022/07/16 14:46:00;;;;;;;3.15;1.40;;;;;;;;;;4964360;28;20122;-89
2022/07/16 14:48:26;;;;;;;2.45;1.30;;;;;;;;;;4968134;28;20029;-93
2022/07/16 14:50:51;;;;;;;3.60;1.42;;;;;;;;;;4969321;28;20054;-88
2022/07/16 14:53:17;;;;;;;1.73;1.60;;;;;;;;;;4966172;28;20117;-88
2022/07/16 14:55:42;;;;;;;2.15;1.30;;;;;;;;;;4964647;28;20418;-89
2022/07/16 14:58:07;;;;;;;2.13;1.35;;;;;;;;;;4966447;28;20063;-91